sensor_id;sensor_type;location;lat;lon;timestamp;P1;durP1;ratioP1;P2;durP2;ratioP2
3567;SDS011;1798;48.486;9.232;2024-01-07T00:02:06;39.07;;;23.23;;
3567;SDS011;1798;48.486;9.232;2024-01-07T00:04:34;35.43;;;21.90;;
3567;SDS011;1798;48.486;9.232;2024-01-07T00:07:00;32.87;;;20.70;;
3567;SDS011;1798;48.486;9.232;2024-01-07T00:09:27;34.87;;;22.37;;
3567;SDS011;1798;48.486;9.232;2024-01-07T00:11:53;38.00;;;23.37;;
3567;SDS011;1798;48.486;9.232;2024-01-07T00:14:20;23.30;;;15.07;;
3567;SDS011;1798;48.486;9.232;2024-01-07T00:16:46;36.33;;;21.20;;
3567;SDS011;1798;48.486;9.232;2024-01-07T00:19:13;41.10;;;22.20;;
3567;SDS011;1798;48.486;9.232;2024-01-07T00:21:41;38.10;;;22.77;;
3567;SDS011;1798;48.486;9.232;2024-01-07T00:24:08;43.77;;;25.20;;
3567;SDS011;1798;48.486;9.232;2024-01-07T00:26:34;39.73;;;22.53;;
3567;SDS011;1798;48.486;9.232;2024-01-07T00:29:01;43.93;;;24.30;;
3567;SDS011;1798;48.486;9.232;2024-01-07T00:31:28;54.27;;;24.37;;
3567;SDS011;1798;48.486;9.232;2024-01-07T00:33:54;36.00;;;17.87;;
3567;SDS011;1798;48.486;9.232;2024-01-07T00:36:21;30.60;;;18.93;;
3567;SDS011;1798;48.486;9.232;2024-01-07T00:38:49;33.13;;;20.70;;
3567;SDS011;1798;48.486;9.232;2024-01-07T00:41:15;38.23;;;23.37;;
3567;SDS011;1798;48.486;9.232;2024-01-07T00:43:42;24.77;;;15.30;;
3567;SDS011;1798;48.486;9.232;2024-01-07T00:46:09;37.70;;;25.70;;
3567;SDS011;1798;48.486;9.232;2024-01-07T00:48:35;42.30;;;25.00;;
3567;SDS011;1798;48.486;9.232;2024-01-07T00:51:02;43.40;;;23.60;;
3567;SDS011;1798;48.486;9.232;2024-01-07T00:53:29;39.67;;;24.20;;
3567;SDS011;1798;48.486;9.232;2024-01-07T00:55:57;43.87;;;24.90;;
3567;SDS011;1798;48.486;9.232;2024-01-07T00:58:24;47.73;;;24.90;;
3567;SDS011;1798;48.486;9.232;2024-01-07T01:00:50;38.43;;;23.23;;
3567;SDS011;1798;48.486;9.232;2024-01-07T01:03:19;45.90;;;24.80;;
3567;SDS011;1798;48.486;9.232;2024-01-07T01:05:45;41.87;;;24.57;;
3567;SDS011;1798;48.486;9.232;2024-01-07T01:08:12;38.57;;;23.80;;
3567;SDS011;1798;48.486;9.232;2024-01-07T01:10:39;37.50;;;23.10;;
3567;SDS011;1798;48.486;9.232;2024-01-07T01:13:06;40.63;;;24.47;;
3567;SDS011;1798;48.486;9.232;2024-01-07T01:15:33;35.13;;;22.40;;
3567;SDS011;1798;48.486;9.232;2024-01-07T01:18:00;42.00;;;22.87;;
3567;SDS011;1798;48.486;9.232;2024-01-07T01:20:26;42.07;;;25.40;;
3567;SDS011;1798;48.486;9.232;2024-01-07T01:22:54;31.87;;;18.73;;
3567;SDS011;1798;48.486;9.232;2024-01-07T01:25:20;44.53;;;22.60;;
3567;SDS011;1798;48.486;9.232;2024-01-07T01:27:47;47.50;;;22.70;;
3567;SDS011;1798;48.486;9.232;2024-01-07T01:30:15;36.03;;;23.20;;
3567;SDS011;1798;48.486;9.232;2024-01-07T01:32:41;35.10;;;19.70;;
3567;SDS011;1798;48.486;9.232;2024-01-07T01:35:08;51.07;;;25.17;;
3567;SDS011;1798;48.486;9.232;2024-01-07T01:37:35;42.20;;;23.70;;
3567;SDS011;1798;48.486;9.232;2024-01-07T01:40:02;44.67;;;25.63;;
3567;SDS011;1798;48.486;9.232;2024-01-07T01:42:29;49.47;;;25.90;;
3567;SDS011;1798;48.486;9.232;2024-01-07T01:44:56;40.27;;;23.93;;
3567;SDS011;1798;48.486;9.232;2024-01-07T01:47:27;34.63;;;18.60;;
3567;SDS011;1798;48.486;9.232;2024-01-07T01:49:54;32.20;;;18.40;;
3567;SDS011;1798;48.486;9.232;2024-01-07T01:52:21;40.27;;;24.13;;
3567;SDS011;1798;48.486;9.232;2024-01-07T01:54:48;28.10;;;17.17;;
3567;SDS011;1798;48.486;9.232;2024-01-07T01:57:15;36.63;;;20.07;;
3567;SDS011;1798;48.486;9.232;2024-01-07T01:59:43;41.00;;;24.40;;
3567;SDS011;1798;48.486;9.232;2024-01-07T02:02:10;40.93;;;26.13;;
3567;SDS011;1798;48.486;9.232;2024-01-07T02:04:38;45.37;;;26.00;;
3567;SDS011;1798;48.486;9.232;2024-01-07T02:07:04;32.13;;;18.73;;
3567;SDS011;1798;48.486;9.232;2024-01-07T02:09:31;39.67;;;25.07;;
3567;SDS011;1798;48.486;9.232;2024-01-07T02:12:01;41.20;;;24.07;;
3567;SDS011;1798;48.486;9.232;2024-01-07T02:14:28;39.90;;;23.40;;
3567;SDS011;1798;48.486;9.232;2024-01-07T02:16:54;42.00;;;24.97;;
3567;SDS011;1798;48.486;9.232;2024-01-07T02:19:21;48.03;;;24.73;;
3567;SDS011;1798;48.486;9.232;2024-01-07T02:21:50;54.20;;;27.50;;
3567;SDS011;1798;48.486;9.232;2024-01-07T02:24:18;43.10;;;25.23;;
3567;SDS011;1798;48.486;9.232;2024-01-07T02:26:44;48.97;;;23.67;;
3567;SDS011;1798;48.486;9.232;2024-01-07T02:29:11;47.37;;;24.30;;
3567;SDS011;1798;48.486;9.232;2024-01-07T02:31:38;41.33;;;25.17;;
3567;SDS011;1798;48.486;9.232;2024-01-07T02:34:04;46.73;;;25.80;;
3567;SDS011;1798;48.486;9.232;2024-01-07T02:36:31;40.77;;;23.93;;
3567;SDS011;1798;48.486;9.232;2024-01-07T02:38:57;36.37;;;22.90;;
3567;SDS011;1798;48.486;9.232;2024-01-07T02:41:25;52.23;;;26.73;;
3567;SDS011;1798;48.486;9.232;2024-01-07T02:43:52;34.83;;;21.13;;
3567;SDS011;1798;48.486;9.232;2024-01-07T02:46:19;33.80;;;20.37;;
3567;SDS011;1798;48.486;9.232;2024-01-07T02:48:45;29.00;;;17.17;;
3567;SDS011;1798;48.486;9.232;2024-01-07T02:51:12;43.60;;;24.10;;
3567;SDS011;1798;48.486;9.232;2024-01-07T02:53:38;42.77;;;23.23;;
3567;SDS011;1798;48.486;9.232;2024-01-07T02:56:05;39.07;;;22.60;;
3567;SDS011;1798;48.486;9.232;2024-01-07T02:58:35;39.77;;;21.70;;
3567;SDS011;1798;48.486;9.232;2024-01-07T03:01:02;28.73;;;16.70;;
3567;SDS011;1798;48.486;9.232;2024-01-07T03:03:28;45.97;;;24.80;;
3567;SDS011;1798;48.486;9.232;2024-01-07T03:05:55;41.30;;;25.67;;
3567;SDS011;1798;48.486;9.232;2024-01-07T03:08:21;37.10;;;23.67;;
3567;SDS011;1798;48.486;9.232;2024-01-07T03:10:48;38.53;;;23.37;;
3567;SDS011;1798;48.486;9.232;2024-01-07T03:13:14;42.13;;;22.27;;
3567;SDS011;1798;48.486;9.232;2024-01-07T03:15:42;43.33;;;24.80;;
3567;SDS011;1798;48.486;9.232;2024-01-07T03:18:09;33.77;;;19.30;;
3567;SDS011;1798;48.486;9.232;2024-01-07T03:20:35;38.60;;;23.10;;
3567;SDS011;1798;48.486;9.232;2024-01-07T03:23:02;37.60;;;23.90;;
3567;SDS011;1798;48.486;9.232;2024-01-07T03:25:29;42.97;;;21.00;;
3567;SDS011;1798;48.486;9.232;2024-01-07T03:27:56;43.67;;;22.70;;
3567;SDS011;1798;48.486;9.232;2024-01-07T03:30:22;38.37;;;19.90;;
3567;SDS011;1798;48.486;9.232;2024-01-07T03:32:50;40.10;;;20.17;;
3567;SDS011;1798;48.486;9.232;2024-01-07T03:35:17;41.67;;;23.43;;
3567;SDS011;1798;48.486;9.232;2024-01-07T03:37:43;37.93;;;22.17;;
3567;SDS011;1798;48.486;9.232;2024-01-07T03:40:10;33.87;;;20.93;;
3567;SDS011;1798;48.486;9.232;2024-01-07T03:42:37;45.13;;;23.17;;
3567;SDS011;1798;48.486;9.232;2024-01-07T03:45:04;40.47;;;22.50;;
3567;SDS011;1798;48.486;9.232;2024-01-07T03:47:31;40.00;;;22.63;;
3567;SDS011;1798;48.486;9.232;2024-01-07T03:49:59;32.87;;;20.37;;
3567;SDS011;1798;48.486;9.232;2024-01-07T03:52:25;38.07;;;20.83;;
3567;SDS011;1798;48.486;9.232;2024-01-07T03:54:53;40.97;;;21.80;;
3567;SDS011;1798;48.486;9.232;2024-01-07T03:57:20;39.17;;;22.33;;
3567;SDS011;1798;48.486;9.232;2024-01-07T03:59:46;32.57;;;18.00;;
3567;SDS011;1798;48.486;9.232;2024-01-07T04:02:13;41.30;;;22.57;;
3567;SDS011;1798;48.486;9.232;2024-01-07T04:04:41;43.40;;;19.33;;
3567;SDS011;1798;48.486;9.232;2024-01-07T04:07:09;26.07;;;15.87;;
3567;SDS011;1798;48.486;9.232;2024-01-07T04:09:35;28.10;;;17.67;;
3567;SDS011;1798;48.486;9.232;2024-01-07T04:12:02;26.33;;;16.83;;
3567;SDS011;1798;48.486;9.232;2024-01-07T04:14:29;37.70;;;18.53;;
3567;SDS011;1798;48.486;9.232;2024-01-07T04:16:58;36.47;;;20.67;;
3567;SDS011;1798;48.486;9.232;2024-01-07T04:19:25;35.93;;;21.77;;
3567;SDS011;1798;48.486;9.232;2024-01-07T04:21:51;37.30;;;19.63;;
3567;SDS011;1798;48.486;9.232;2024-01-07T04:24:19;39.60;;;19.40;;
3567;SDS011;1798;48.486;9.232;2024-01-07T04:26:46;30.23;;;18.67;;
3567;SDS011;1798;48.486;9.232;2024-01-07T04:29:12;37.27;;;17.90;;
3567;SDS011;1798;48.486;9.232;2024-01-07T04:31:39;31.80;;;18.53;;
3567;SDS011;1798;48.486;9.232;2024-01-07T04:34:06;25.80;;;16.30;;
3567;SDS011;1798;48.486;9.232;2024-01-07T04:36:32;45.77;;;21.90;;
3567;SDS011;1798;48.486;9.232;2024-01-07T04:38:59;27.20;;;18.03;;
3567;SDS011;1798;48.486;9.232;2024-01-07T04:41:27;31.87;;;17.77;;
3567;SDS011;1798;48.486;9.232;2024-01-07T04:43:53;31.60;;;19.27;;
3567;SDS011;1798;48.486;9.232;2024-01-07T04:46:20;33.37;;;18.03;;
3567;SDS011;1798;48.486;9.232;2024-01-07T04:48:46;30.13;;;18.20;;
3567;SDS011;1798;48.486;9.232;2024-01-07T04:51:13;30.87;;;18.93;;
3567;SDS011;1798;48.486;9.232;2024-01-07T04:53:40;39.60;;;20.47;;
3567;SDS011;1798;48.486;9.232;2024-01-07T04:56:06;30.63;;;17.53;;
3567;SDS011;1798;48.486;9.232;2024-01-07T04:58:34;37.20;;;19.03;;
3567;SDS011;1798;48.486;9.232;2024-01-07T05:01:01;29.60;;;18.17;;
3567;SDS011;1798;48.486;9.232;2024-01-07T05:03:28;28.30;;;16.60;;
3567;SDS011;1798;48.486;9.232;2024-01-07T05:05:54;25.63;;;16.90;;
3567;SDS011;1798;48.486;9.232;2024-01-07T05:08:21;27.37;;;17.83;;
3567;SDS011;1798;48.486;9.232;2024-01-07T05:10:47;33.13;;;19.17;;
3567;SDS011;1798;48.486;9.232;2024-01-07T05:13:14;42.10;;;19.80;;
3567;SDS011;1798;48.486;9.232;2024-01-07T05:15:42;32.80;;;17.00;;
3567;SDS011;1798;48.486;9.232;2024-01-07T05:18:08;30.17;;;19.33;;
3567;SDS011;1798;48.486;9.232;2024-01-07T05:20:35;28.87;;;16.10;;
3567;SDS011;1798;48.486;9.232;2024-01-07T05:23:02;30.30;;;17.93;;
3567;SDS011;1798;48.486;9.232;2024-01-07T05:25:28;31.77;;;18.60;;
3567;SDS011;1798;48.486;9.232;2024-01-07T05:27:55;29.57;;;18.40;;
3567;SDS011;1798;48.486;9.232;2024-01-07T05:30:22;26.10;;;15.40;;
3567;SDS011;1798;48.486;9.232;2024-01-07T05:32:50;32.00;;;19.57;;
3567;SDS011;1798;48.486;9.232;2024-01-07T05:35:16;25.37;;;15.20;;
3567;SDS011;1798;48.486;9.232;2024-01-07T05:37:43;38.70;;;16.33;;
3567;SDS011;1798;48.486;9.232;2024-01-07T05:40:10;28.47;;;15.70;;
3567;SDS011;1798;48.486;9.232;2024-01-07T05:42:37;25.17;;;15.00;;
3567;SDS011;1798;48.486;9.232;2024-01-07T05:45:04;28.50;;;17.00;;
3567;SDS011;1798;48.486;9.232;2024-01-07T05:47:31;23.73;;;15.40;;
3567;SDS011;1798;48.486;9.232;2024-01-07T05:49:59;24.10;;;15.37;;
3567;SDS011;1798;48.486;9.232;2024-01-07T05:52:25;21.30;;;15.80;;
3567;SDS011;1798;48.486;9.232;2024-01-07T05:54:52;25.67;;;14.40;;
3567;SDS011;1798;48.486;9.232;2024-01-07T05:57:18;27.60;;;15.90;;
3567;SDS011;1798;48.486;9.232;2024-01-07T05:59:45;23.83;;;15.30;;
3567;SDS011;1798;48.486;9.232;2024-01-07T06:02:11;25.33;;;15.20;;
3567;SDS011;1798;48.486;9.232;2024-01-07T06:04:37;28.80;;;16.20;;
3567;SDS011;1798;48.486;9.232;2024-01-07T06:07:05;25.77;;;16.23;;
3567;SDS011;1798;48.486;9.232;2024-01-07T06:09:32;18.83;;;13.43;;
3567;SDS011;1798;48.486;9.232;2024-01-07T06:11:59;21.50;;;14.50;;
3567;SDS011;1798;48.486;9.232;2024-01-07T06:14:26;21.90;;;14.63;;
3567;SDS011;1798;48.486;9.232;2024-01-07T06:16:52;27.70;;;15.27;;
3567;SDS011;1798;48.486;9.232;2024-01-07T06:19:19;23.37;;;15.73;;
3567;SDS011;1798;48.486;9.232;2024-01-07T06:21:46;23.30;;;12.73;;
3567;SDS011;1798;48.486;9.232;2024-01-07T06:24:14;24.17;;;13.20;;
3567;SDS011;1798;48.486;9.232;2024-01-07T06:26:41;22.67;;;13.83;;
3567;SDS011;1798;48.486;9.232;2024-01-07T06:29:07;19.80;;;12.87;;
3567;SDS011;1798;48.486;9.232;2024-01-07T06:31:35;21.03;;;14.07;;
3567;SDS011;1798;48.486;9.232;2024-01-07T06:34:02;25.40;;;14.50;;
3567;SDS011;1798;48.486;9.232;2024-01-07T06:36:28;19.03;;;12.90;;
3567;SDS011;1798;48.486;9.232;2024-01-07T06:38:55;22.13;;;14.63;;
3567;SDS011;1798;48.486;9.232;2024-01-07T06:41:23;21.23;;;13.57;;
3567;SDS011;1798;48.486;9.232;2024-01-07T06:43:49;21.60;;;12.97;;
3567;SDS011;1798;48.486;9.232;2024-01-07T06:46:19;17.40;;;12.40;;
3567;SDS011;1798;48.486;9.232;2024-01-07T06:48:45;21.90;;;13.10;;
3567;SDS011;1798;48.486;9.232;2024-01-07T06:51:13;21.00;;;13.30;;
3567;SDS011;1798;48.486;9.232;2024-01-07T06:53:40;22.37;;;14.83;;
3567;SDS011;1798;48.486;9.232;2024-01-07T06:56:06;26.47;;;13.93;;
3567;SDS011;1798;48.486;9.232;2024-01-07T06:58:34;23.80;;;14.90;;
3567;SDS011;1798;48.486;9.232;2024-01-07T07:01:06;22.87;;;14.47;;
3567;SDS011;1798;48.486;9.232;2024-01-07T07:03:36;25.73;;;15.20;;
3567;SDS011;1798;48.486;9.232;2024-01-07T07:06:03;20.63;;;13.47;;
3567;SDS011;1798;48.486;9.232;2024-01-07T07:08:30;31.43;;;15.03;;
3567;SDS011;1798;48.486;9.232;2024-01-07T07:10:57;21.60;;;14.47;;
3567;SDS011;1798;48.486;9.232;2024-01-07T07:13:24;22.07;;;14.20;;
3567;SDS011;1798;48.486;9.232;2024-01-07T07:15:51;26.93;;;15.23;;
3567;SDS011;1798;48.486;9.232;2024-01-07T07:18:18;18.83;;;11.73;;
3567;SDS011;1798;48.486;9.232;2024-01-07T07:20:45;20.90;;;13.63;;
3567;SDS011;1798;48.486;9.232;2024-01-07T07:23:11;25.10;;;15.00;;
3567;SDS011;1798;48.486;9.232;2024-01-07T07:25:38;27.87;;;18.17;;
3567;SDS011;1798;48.486;9.232;2024-01-07T07:28:08;20.80;;;13.20;;
3567;SDS011;1798;48.486;9.232;2024-01-07T07:30:40;24.10;;;16.53;;
3567;SDS011;1798;48.486;9.232;2024-01-07T07:33:11;26.40;;;14.40;;
3567;SDS011;1798;48.486;9.232;2024-01-07T07:35:38;30.73;;;15.03;;
3567;SDS011;1798;48.486;9.232;2024-01-07T07:38:06;23.60;;;15.77;;
3567;SDS011;1798;48.486;9.232;2024-01-07T07:40:33;27.20;;;16.33;;
3567;SDS011;1798;48.486;9.232;2024-01-07T07:43:00;30.63;;;14.63;;
3567;SDS011;1798;48.486;9.232;2024-01-07T07:45:26;25.40;;;14.80;;
3567;SDS011;1798;48.486;9.232;2024-01-07T07:47:53;24.70;;;13.90;;
3567;SDS011;1798;48.486;9.232;2024-01-07T07:50:21;27.93;;;15.97;;
3567;SDS011;1798;48.486;9.232;2024-01-07T07:52:47;22.77;;;13.77;;
3567;SDS011;1798;48.486;9.232;2024-01-07T07:55:14;27.90;;;16.83;;
3567;SDS011;1798;48.486;9.232;2024-01-07T07:57:41;23.50;;;14.43;;
3567;SDS011;1798;48.486;9.232;2024-01-07T08:00:08;22.90;;;15.40;;
3567;SDS011;1798;48.486;9.232;2024-01-07T08:02:37;29.73;;;15.77;;
3567;SDS011;1798;48.486;9.232;2024-01-07T08:05:04;24.20;;;16.40;;
3567;SDS011;1798;48.486;9.232;2024-01-07T08:07:33;22.10;;;15.03;;
3567;SDS011;1798;48.486;9.232;2024-01-07T08:10:00;27.87;;;17.03;;
3567;SDS011;1798;48.486;9.232;2024-01-07T08:12:26;27.20;;;16.77;;
3567;SDS011;1798;48.486;9.232;2024-01-07T08:14:53;28.40;;;16.23;;
3567;SDS011;1798;48.486;9.232;2024-01-07T08:17:19;27.10;;;15.97;;
3567;SDS011;1798;48.486;9.232;2024-01-07T08:19:46;22.53;;;13.40;;
3567;SDS011;1798;48.486;9.232;2024-01-07T08:22:13;29.77;;;13.63;;
3567;SDS011;1798;48.486;9.232;2024-01-07T08:24:41;25.03;;;12.60;;
3567;SDS011;1798;48.486;9.232;2024-01-07T08:27:07;34.37;;;16.93;;
3567;SDS011;1798;48.486;9.232;2024-01-07T08:29:34;24.10;;;15.07;;
3567;SDS011;1798;48.486;9.232;2024-01-07T08:32:01;28.23;;;17.40;;
3567;SDS011;1798;48.486;9.232;2024-01-07T08:34:28;36.57;;;17.00;;
3567;SDS011;1798;48.486;9.232;2024-01-07T08:36:55;28.57;;;17.30;;
3567;SDS011;1798;48.486;9.232;2024-01-07T08:39:21;24.47;;;15.80;;
3567;SDS011;1798;48.486;9.232;2024-01-07T08:41:49;23.97;;;14.80;;
3567;SDS011;1798;48.486;9.232;2024-01-07T08:44:17;36.10;;;18.43;;
3567;SDS011;1798;48.486;9.232;2024-01-07T08:46:43;26.73;;;16.33;;
3567;SDS011;1798;48.486;9.232;2024-01-07T08:49:10;28.20;;;16.70;;
3567;SDS011;1798;48.486;9.232;2024-01-07T08:51:38;25.67;;;16.13;;
3567;SDS011;1798;48.486;9.232;2024-01-07T08:54:05;27.50;;;16.87;;
3567;SDS011;1798;48.486;9.232;2024-01-07T08:56:32;24.63;;;16.03;;
3567;SDS011;1798;48.486;9.232;2024-01-07T08:59:00;20.20;;;12.33;;
3567;SDS011;1798;48.486;9.232;2024-01-07T09:01:26;20.30;;;12.90;;
3567;SDS011;1798;48.486;9.232;2024-01-07T09:03:53;21.93;;;14.63;;
3567;SDS011;1798;48.486;9.232;2024-01-07T09:06:20;23.57;;;14.00;;
3567;SDS011;1798;48.486;9.232;2024-01-07T09:08:46;21.07;;;11.30;;
3567;SDS011;1798;48.486;9.232;2024-01-07T09:11:13;17.77;;;11.27;;
3567;SDS011;1798;48.486;9.232;2024-01-07T09:13:41;18.77;;;11.33;;
3567;SDS011;1798;48.486;9.232;2024-01-07T09:16:12;20.20;;;11.60;;
3567;SDS011;1798;48.486;9.232;2024-01-07T09:18:39;23.87;;;13.53;;
3567;SDS011;1798;48.486;9.232;2024-01-07T09:21:08;24.37;;;13.77;;
3567;SDS011;1798;48.486;9.232;2024-01-07T09:23:38;19.70;;;11.50;;
3567;SDS011;1798;48.486;9.232;2024-01-07T09:26:07;20.43;;;11.80;;
3567;SDS011;1798;48.486;9.232;2024-01-07T09:28:33;22.83;;;12.20;;
3567;SDS011;1798;48.486;9.232;2024-01-07T09:31:02;21.90;;;12.57;;
3567;SDS011;1798;48.486;9.232;2024-01-07T09:33:30;19.23;;;10.43;;
3567;SDS011;1798;48.486;9.232;2024-01-07T09:35:57;21.90;;;11.40;;
3567;SDS011;1798;48.486;9.232;2024-01-07T09:38:24;21.43;;;11.30;;
3567;SDS011;1798;48.486;9.232;2024-01-07T09:40:51;25.00;;;12.70;;
3567;SDS011;1798;48.486;9.232;2024-01-07T09:43:18;18.13;;;10.83;;
3567;SDS011;1798;48.486;9.232;2024-01-07T09:45:45;21.50;;;12.10;;
3567;SDS011;1798;48.486;9.232;2024-01-07T09:48:13;32.50;;;14.17;;
3567;SDS011;1798;48.486;9.232;2024-01-07T09:50:42;26.67;;;13.00;;
3567;SDS011;1798;48.486;9.232;2024-01-07T09:53:07;22.90;;;12.80;;
3567;SDS011;1798;48.486;9.232;2024-01-07T09:55:40;24.33;;;11.73;;
3567;SDS011;1798;48.486;9.232;2024-01-07T09:58:19;18.53;;;11.30;;
3567;SDS011;1798;48.486;9.232;2024-01-07T10:00:46;17.27;;;10.50;;
3567;SDS011;1798;48.486;9.232;2024-01-07T10:03:13;20.20;;;10.80;;
3567;SDS011;1798;48.486;9.232;2024-01-07T10:05:41;24.00;;;12.60;;
3567;SDS011;1798;48.486;9.232;2024-01-07T10:08:08;16.27;;;10.60;;
3567;SDS011;1798;48.486;9.232;2024-01-07T10:10:35;19.13;;;10.67;;
3567;SDS011;1798;48.486;9.232;2024-01-07T10:13:03;21.73;;;10.87;;
3567;SDS011;1798;48.486;9.232;2024-01-07T10:15:31;19.73;;;10.83;;
3567;SDS011;1798;48.486;9.232;2024-01-07T10:18:02;29.23;;;10.77;;
3567;SDS011;1798;48.486;9.232;2024-01-07T10:20:30;20.47;;;11.13;;
3567;SDS011;1798;48.486;9.232;2024-01-07T10:22:59;22.17;;;9.90;;
3567;SDS011;1798;48.486;9.232;2024-01-07T10:25:26;22.77;;;11.67;;
3567;SDS011;1798;48.486;9.232;2024-01-07T10:27:53;17.97;;;11.37;;
3567;SDS011;1798;48.486;9.232;2024-01-07T10:30:19;21.60;;;11.33;;
3567;SDS011;1798;48.486;9.232;2024-01-07T10:32:47;21.63;;;10.97;;
3567;SDS011;1798;48.486;9.232;2024-01-07T10:35:13;17.40;;;9.80;;
3567;SDS011;1798;48.486;9.232;2024-01-07T10:37:42;17.53;;;10.40;;
3567;SDS011;1798;48.486;9.232;2024-01-07T10:40:12;16.97;;;9.83;;
3567;SDS011;1798;48.486;9.232;2024-01-07T10:42:39;19.93;;;11.23;;
3567;SDS011;1798;48.486;9.232;2024-01-07T10:45:07;21.47;;;12.23;;
3567;SDS011;1798;48.486;9.232;2024-01-07T10:47:35;17.53;;;10.83;;
3567;SDS011;1798;48.486;9.232;2024-01-07T10:50:03;17.60;;;9.97;;
3567;SDS011;1798;48.486;9.232;2024-01-07T10:52:30;19.83;;;11.00;;
3567;SDS011;1798;48.486;9.232;2024-01-07T10:55:02;17.60;;;9.90;;
3567;SDS011;1798;48.486;9.232;2024-01-07T10:57:34;20.00;;;11.37;;
3567;SDS011;1798;48.486;9.232;2024-01-07T11:00:06;20.00;;;10.13;;
3567;SDS011;1798;48.486;9.232;2024-01-07T11:02:34;17.40;;;9.47;;
3567;SDS011;1798;48.486;9.232;2024-01-07T11:05:08;17.10;;;10.93;;
3567;SDS011;1798;48.486;9.232;2024-01-07T11:07:39;16.43;;;10.10;;
3567;SDS011;1798;48.486;9.232;2024-01-07T11:10:08;17.90;;;10.50;;
3567;SDS011;1798;48.486;9.232;2024-01-07T11:12:39;17.13;;;9.83;;
3567;SDS011;1798;48.486;9.232;2024-01-07T11:15:06;17.03;;;10.40;;
3567;SDS011;1798;48.486;9.232;2024-01-07T11:17:39;15.37;;;9.73;;
3567;SDS011;1798;48.486;9.232;2024-01-07T11:20:11;18.87;;;9.83;;
3567;SDS011;1798;48.486;9.232;2024-01-07T11:22:40;26.50;;;10.57;;
3567;SDS011;1798;48.486;9.232;2024-01-07T11:25:28;18.90;;;10.90;;
3567;SDS011;1798;48.486;9.232;2024-01-07T11:27:57;20.87;;;10.97;;
3567;SDS011;1798;48.486;9.232;2024-01-07T11:30:24;15.70;;;10.73;;
3567;SDS011;1798;48.486;9.232;2024-01-07T11:32:56;21.50;;;10.23;;
3567;SDS011;1798;48.486;9.232;2024-01-07T11:35:34;27.70;;;11.47;;
3567;SDS011;1798;48.486;9.232;2024-01-07T11:38:20;19.57;;;10.77;;
3567;SDS011;1798;48.486;9.232;2024-01-07T11:40:46;18.67;;;10.30;;
3567;SDS011;1798;48.486;9.232;2024-01-07T11:43:14;22.27;;;11.10;;
3567;SDS011;1798;48.486;9.232;2024-01-07T11:45:41;17.03;;;9.60;;
3567;SDS011;1798;48.486;9.232;2024-01-07T11:48:08;18.20;;;11.10;;
3567;SDS011;1798;48.486;9.232;2024-01-07T11:50:37;21.00;;;11.23;;
3567;SDS011;1798;48.486;9.232;2024-01-07T11:53:04;20.40;;;11.70;;
3567;SDS011;1798;48.486;9.232;2024-01-07T11:55:31;20.83;;;11.30;;
3567;SDS011;1798;48.486;9.232;2024-01-07T11:58:00;21.37;;;11.20;;
3567;SDS011;1798;48.486;9.232;2024-01-07T12:00:28;18.87;;;10.90;;
3567;SDS011;1798;48.486;9.232;2024-01-07T12:02:57;19.90;;;11.47;;
3567;SDS011;1798;48.486;9.232;2024-01-07T12:05:23;17.97;;;10.60;;
3567;SDS011;1798;48.486;9.232;2024-01-07T12:07:50;20.63;;;11.90;;
3567;SDS011;1798;48.486;9.232;2024-01-07T12:10:17;20.33;;;11.30;;
3567;SDS011;1798;48.486;9.232;2024-01-07T12:12:44;25.43;;;13.40;;
3567;SDS011;1798;48.486;9.232;2024-01-07T12:15:11;21.63;;;13.20;;
3567;SDS011;1798;48.486;9.232;2024-01-07T12:17:40;19.10;;;10.60;;
3567;SDS011;1798;48.486;9.232;2024-01-07T12:20:09;20.33;;;10.73;;
3567;SDS011;1798;48.486;9.232;2024-01-07T12:22:37;18.07;;;10.93;;
3567;SDS011;1798;48.486;9.232;2024-01-07T12:25:07;21.97;;;12.30;;
3567;SDS011;1798;48.486;9.232;2024-01-07T12:27:35;22.37;;;13.03;;
3567;SDS011;1798;48.486;9.232;2024-01-07T12:30:02;15.00;;;10.50;;
3567;SDS011;1798;48.486;9.232;2024-01-07T12:32:29;20.03;;;11.00;;
3567;SDS011;1798;48.486;9.232;2024-01-07T12:34:58;17.03;;;11.07;;
3567;SDS011;1798;48.486;9.232;2024-01-07T12:37:25;17.13;;;10.57;;
3567;SDS011;1798;48.486;9.232;2024-01-07T12:39:52;19.70;;;11.43;;
3567;SDS011;1798;48.486;9.232;2024-01-07T12:42:19;21.67;;;12.10;;
3567;SDS011;1798;48.486;9.232;2024-01-07T12:44:47;15.50;;;10.00;;
3567;SDS011;1798;48.486;9.232;2024-01-07T12:47:14;15.60;;;9.90;;
3567;SDS011;1798;48.486;9.232;2024-01-07T12:49:41;17.53;;;9.70;;
3567;SDS011;1798;48.486;9.232;2024-01-07T12:52:09;20.17;;;13.20;;
3567;SDS011;1798;48.486;9.232;2024-01-07T12:54:36;21.67;;;10.80;;
3567;SDS011;1798;48.486;9.232;2024-01-07T12:57:04;21.00;;;11.27;;
3567;SDS011;1798;48.486;9.232;2024-01-07T12:59:31;17.33;;;11.20;;
3567;SDS011;1798;48.486;9.232;2024-01-07T13:01:58;18.93;;;10.63;;
3567;SDS011;1798;48.486;9.232;2024-01-07T13:04:25;15.60;;;10.60;;
3567;SDS011;1798;48.486;9.232;2024-01-07T13:06:51;20.63;;;11.07;;
3567;SDS011;1798;48.486;9.232;2024-01-07T13:09:20;16.13;;;8.63;;
3567;SDS011;1798;48.486;9.232;2024-01-07T13:11:47;17.27;;;10.83;;
3567;SDS011;1798;48.486;9.232;2024-01-07T13:14:14;17.70;;;10.23;;
3567;SDS011;1798;48.486;9.232;2024-01-07T13:16:41;22.37;;;10.57;;
3567;SDS011;1798;48.486;9.232;2024-01-07T13:19:08;17.47;;;9.53;;
3567;SDS011;1798;48.486;9.232;2024-01-07T13:21:38;21.90;;;11.40;;
3567;SDS011;1798;48.486;9.232;2024-01-07T13:24:05;17.23;;;9.80;;
3567;SDS011;1798;48.486;9.232;2024-01-07T13:26:36;16.73;;;9.47;;
3567;SDS011;1798;48.486;9.232;2024-01-07T13:29:03;21.17;;;11.77;;
3567;SDS011;1798;48.486;9.232;2024-01-07T13:31:30;21.40;;;9.90;;
3567;SDS011;1798;48.486;9.232;2024-01-07T13:33:57;21.27;;;10.80;;
3567;SDS011;1798;48.486;9.232;2024-01-07T13:36:24;17.63;;;11.03;;
3567;SDS011;1798;48.486;9.232;2024-01-07T13:38:50;17.53;;;10.60;;
3567;SDS011;1798;48.486;9.232;2024-01-07T13:41:17;17.47;;;9.10;;
3567;SDS011;1798;48.486;9.232;2024-01-07T13:43:45;15.30;;;9.00;;
3567;SDS011;1798;48.486;9.232;2024-01-07T13:46:12;14.40;;;9.87;;
3567;SDS011;1798;48.486;9.232;2024-01-07T13:48:39;14.07;;;8.50;;
3567;SDS011;1798;48.486;9.232;2024-01-07T13:51:07;21.50;;;11.03;;
3567;SDS011;1798;48.486;9.232;2024-01-07T13:53:37;19.47;;;11.70;;
3567;SDS011;1798;48.486;9.232;2024-01-07T13:56:04;16.47;;;10.80;;
3567;SDS011;1798;48.486;9.232;2024-01-07T13:58:32;21.17;;;10.87;;
3567;SDS011;1798;48.486;9.232;2024-01-07T14:01:01;22.70;;;10.70;;
3567;SDS011;1798;48.486;9.232;2024-01-07T14:03:28;16.97;;;9.80;;
3567;SDS011;1798;48.486;9.232;2024-01-07T14:05:55;22.20;;;11.23;;
3567;SDS011;1798;48.486;9.232;2024-01-07T14:08:21;19.17;;;10.33;;
3567;SDS011;1798;48.486;9.232;2024-01-07T14:10:48;23.90;;;11.70;;
3567;SDS011;1798;48.486;9.232;2024-01-07T14:13:15;17.40;;;10.03;;
3567;SDS011;1798;48.486;9.232;2024-01-07T14:15:42;18.80;;;11.10;;
3567;SDS011;1798;48.486;9.232;2024-01-07T14:18:11;19.47;;;12.83;;
3567;SDS011;1798;48.486;9.232;2024-01-07T14:20:41;22.53;;;13.67;;
3567;SDS011;1798;48.486;9.232;2024-01-07T14:23:08;23.63;;;12.30;;
3567;SDS011;1798;48.486;9.232;2024-01-07T14:25:35;20.47;;;11.60;;
3567;SDS011;1798;48.486;9.232;2024-01-07T14:28:03;22.40;;;12.90;;
3567;SDS011;1798;48.486;9.232;2024-01-07T14:30:30;39.30;;;13.73;;
3567;SDS011;1798;48.486;9.232;2024-01-07T14:32:56;18.77;;;11.73;;
3567;SDS011;1798;48.486;9.232;2024-01-07T14:35:25;23.17;;;12.57;;
3567;SDS011;1798;48.486;9.232;2024-01-07T14:37:54;22.00;;;12.70;;
3567;SDS011;1798;48.486;9.232;2024-01-07T14:40:22;24.67;;;12.80;;
3567;SDS011;1798;48.486;9.232;2024-01-07T14:42:51;28.77;;;13.87;;
3567;SDS011;1798;48.486;9.232;2024-01-07T14:45:22;24.80;;;12.57;;
3567;SDS011;1798;48.486;9.232;2024-01-07T14:47:50;27.87;;;11.37;;
3567;SDS011;1798;48.486;9.232;2024-01-07T14:50:17;31.53;;;14.13;;